createdAt,value
2022-09-02T00:01:58.778Z,12.20
2022-09-02T00:04:31.758Z,12.50
2022-09-02T00:07:01.828Z,12.40
2022-09-02T00:09:31.748Z,12.20
2022-09-02T00:12:02.065Z,12.60
2022-09-02T00:14:35.941Z,12.50
2022-09-02T00:17:07.205Z,12.40
2022-09-02T00:19:40.665Z,12.30
2022-09-02T00:24:40.909Z,11.90
2022-09-02T00:27:10.897Z,11.80
2022-09-02T00:29:41.065Z,11.70
2022-09-02T00:32:11.112Z,11.80
2022-09-02T00:34:43.715Z,12.20
2022-09-02T00:37:14.098Z,12.00
2022-09-02T00:39:44.959Z,12.30
2022-09-02T00:42:15.651Z,12.30
2022-09-02T00:44:45.748Z,12.20
2022-09-02T00:49:53.954Z,11.80
2022-09-02T00:55:03.370Z,11.40
2022-09-02T00:57:39.928Z,11.80
2022-09-02T01:02:44.510Z,11.40
2022-09-02T01:05:19.328Z,11.50
2022-09-02T01:07:51.153Z,11.30
2022-09-02T01:12:58.590Z,11.30
2022-09-02T01:20:35.139Z,11.50
2022-09-02T01:23:07.915Z,11.20
2022-09-02T01:25:38.825Z,11.30
2022-09-02T01:28:11.839Z,11.40
2022-09-02T01:30:44.330Z,11.20
2022-09-02T01:33:15.201Z,11.20
2022-09-02T01:35:46.733Z,11.10
2022-09-02T01:38:19.936Z,11.00
2022-09-02T01:40:50.099Z,10.70
2022-09-02T01:43:23.888Z,11.70
2022-09-02T01:45:56.173Z,11.10
2022-09-02T01:51:00.867Z,11.80
2022-09-02T01:53:35.063Z,10.60
2022-09-02T01:56:05.493Z,11.00
2022-09-02T01:58:37.253Z,10.90
2022-09-02T02:01:08.177Z,11.00
2022-09-02T02:03:40.501Z,11.90
2022-09-02T02:06:16.458Z,11.10
2022-09-02T02:08:50.022Z,10.70
2022-09-02T02:11:23.102Z,11.00
2022-09-02T02:18:57.795Z,11.60
2022-09-02T02:24:01.722Z,10.90
2022-09-02T02:26:32.113Z,10.60
2022-09-02T02:34:04.108Z,10.40
2022-09-02T02:39:09.576Z,10.80
2022-09-02T02:41:44.730Z,10.20
2022-09-02T06:33:56.249Z,13.20
2022-09-02T06:46:54.239Z,13.90
2022-09-02T07:20:36.591Z,15.40
2022-09-02T07:46:02.952Z,16.00
2022-09-02T07:48:33.878Z,16.00
2022-09-02T08:03:44.922Z,16.70
2022-09-02T08:06:16.860Z,16.80
2022-09-02T08:08:52.234Z,16.90
2022-09-02T08:11:22.500Z,16.80
2022-09-02T08:13:55.174Z,16.90
2022-09-02T08:21:26.380Z,17.00
2022-09-02T08:26:28.480Z,17.60
2022-09-02T08:34:02.579Z,18.20
2022-09-02T08:41:40.144Z,18.40
2022-09-02T08:44:17.033Z,18.60
2022-09-02T08:46:47.161Z,18.80
2022-09-02T08:49:25.845Z,19.00
2022-09-02T08:52:00.861Z,19.00
2022-09-02T08:54:37.422Z,19.30
2022-09-02T08:57:09.388Z,19.60
2022-09-02T08:59:43.941Z,19.80
2022-09-02T09:02:24.491Z,19.90
2022-09-02T09:05:13.165Z,20.10
2022-09-02T09:07:55.639Z,20.40
2022-09-02T09:10:32.562Z,20.50
2022-09-02T09:13:22.313Z,20.90
2022-09-02T09:16:01.859Z,20.70
2022-09-02T09:18:39.906Z,20.80
2022-09-02T09:21:11.191Z,21.10
2022-09-02T09:23:43.195Z,21.30
2022-09-02T09:26:14.710Z,21.10
2022-09-02T09:28:48.263Z,21.20
2022-09-02T09:31:25.057Z,21.10
2022-09-02T09:34:03.136Z,21.10
2022-09-02T09:36:58.139Z,21.00
2022-09-02T09:39:31.166Z,21.20
2022-09-02T09:42:03.287Z,21.50
2022-09-02T09:44:44.728Z,21.90
2022-09-02T09:47:22.924Z,22.10
2022-09-02T09:49:54.794Z,22.10
2022-09-02T09:52:27.580Z,22.00
2022-09-02T09:55:24.319Z,22.30
2022-09-02T09:57:56.358Z,22.20
2022-09-02T10:00:32.129Z,22.70
2022-09-02T10:03:08.415Z,22.30
2022-09-02T10:05:40.411Z,22.60
2022-09-02T10:08:24.612Z,22.60
2022-09-02T10:11:00.884Z,23.00
2022-09-02T10:13:33.796Z,22.40
2022-09-02T10:16:25.476Z,22.00
2022-09-02T10:19:04.721Z,22.70
2022-09-02T10:21:55.618Z,23.30
2022-09-02T10:24:40.114Z,24.10
2022-09-02T10:27:13.327Z,23.50
2022-09-02T10:29:53.733Z,23.00
2022-09-02T10:32:34.944Z,23.30
2022-09-02T10:35:14.139Z,23.00
2022-09-02T10:37:58.972Z,23.00
2022-09-02T10:40:41.719Z,22.80
2022-09-02T10:43:14.219Z,23.80
2022-09-02T10:45:50.863Z,23.50
2022-09-02T10:48:35.421Z,23.30
2022-09-02T10:51:14.668Z,24.10
2022-09-02T10:53:57.770Z,23.20
2022-09-02T10:56:30.843Z,23.00
2022-09-02T10:59:05.759Z,23.10
2022-09-02T11:01:43.228Z,23.20
2022-09-02T11:04:22.692Z,23.90
2022-09-02T11:07:02.845Z,24.00
2022-09-02T11:09:37.626Z,24.30
2022-09-02T11:12:12.243Z,24.70
2022-09-02T11:14:51.561Z,25.10
2022-09-02T11:17:26.696Z,25.70
2022-09-02T11:20:04.836Z,24.80
2022-09-02T11:22:47.970Z,24.60
2022-09-02T11:25:22.811Z,24.90
2022-09-02T11:28:01.076Z,25.10
2022-09-02T11:30:44.896Z,25.20
2022-09-02T11:33:21.741Z,25.20
2022-09-02T11:35:51.746Z,25.60
2022-09-02T11:38:37.638Z,25.40
2022-09-02T11:41:34.327Z,25.80
2022-09-02T11:44:25.845Z,26.10
2022-09-02T11:47:17.908Z,25.80
2022-09-02T11:50:11.196Z,25.00
2022-09-02T11:53:04.890Z,24.30
2022-09-02T11:55:42.787Z,24.50
2022-09-02T11:58:34.683Z,24.60
2022-09-02T12:01:24.383Z,24.60
2022-09-02T12:04:42.061Z,24.80
2022-09-02T12:07:19.835Z,25.80
2022-09-02T12:12:52.017Z,25.10
2022-09-02T12:15:24.708Z,25.30
2022-09-02T12:18:17.400Z,25.40
2022-09-02T12:21:21.257Z,25.60
2022-09-02T12:24:22.125Z,26.00
2022-09-02T12:27:12.302Z,25.90
2022-09-02T12:33:05.351Z,26.30
2022-09-02T12:35:57.647Z,26.10
2022-09-02T12:38:33.199Z,25.90
2022-09-02T12:41:24.984Z,26.50
2022-09-02T12:44:26.896Z,26.80
2022-09-02T12:47:08.194Z,26.20
2022-09-02T12:49:52.381Z,26.10
2022-09-02T12:52:50.427Z,25.50
2022-09-02T12:55:27.841Z,25.10
2022-09-02T12:58:11.260Z,25.20
2022-09-02T13:00:58.758Z,24.70
2022-09-02T13:03:52.202Z,25.40
2022-09-02T13:06:29.743Z,26.00
2022-09-02T13:09:25.355Z,25.70
2022-09-02T13:12:25.002Z,26.10
2022-09-02T13:15:00.009Z,25.90
2022-09-02T13:17:44.308Z,25.90
2022-09-02T13:20:42.957Z,25.30
2022-09-02T13:23:41.496Z,25.30
2022-09-02T13:26:48.474Z,26.10
2022-09-02T13:29:50.517Z,25.00
2022-09-02T13:32:26.675Z,26.00
2022-09-02T13:37:37.875Z,24.70
2022-09-02T13:40:20.353Z,23.70
2022-09-02T13:42:55.358Z,24.30
2022-09-02T13:45:27.144Z,24.80
2022-09-02T13:47:59.368Z,25.20
2022-09-02T13:50:30.856Z,25.30
2022-09-02T13:55:56.152Z,24.80
2022-09-02T13:58:37.387Z,24.80
2022-09-02T14:01:25.818Z,25.00
2022-09-02T14:03:57.755Z,24.90
2022-09-02T14:06:31.220Z,24.60
2022-09-02T14:09:04.170Z,24.60
2022-09-02T14:11:41.686Z,24.80
2022-09-02T14:14:17.632Z,24.80
2022-09-02T14:16:48.042Z,24.70
2022-09-02T14:19:27.550Z,25.40
2022-09-02T14:21:59.380Z,24.90
2022-09-02T14:24:31.163Z,24.80
2022-09-02T14:27:02.851Z,24.90
2022-09-02T14:29:36.379Z,24.90
2022-09-02T14:32:13.485Z,25.10
2022-09-02T14:34:45.136Z,25.10
2022-09-02T14:37:25.091Z,25.10
2022-09-02T14:40:11.951Z,25.00
2022-09-02T14:42:56.618Z,25.40
2022-09-02T14:45:32.396Z,25.10
2022-09-02T14:48:05.767Z,25.00
2022-09-02T14:50:38.388Z,24.70
2022-09-02T14:53:10.999Z,24.60
2022-09-02T14:58:20.864Z,24.70
2022-09-02T15:00:58.657Z,24.70
2022-09-02T15:08:29.995Z,24.70
2022-09-02T15:11:03.745Z,24.50
2022-09-02T15:16:09.145Z,24.40
2022-09-02T15:31:17.081Z,23.80
2022-09-02T15:33:52.392Z,23.70
2022-09-02T15:41:27.400Z,23.20
2022-09-02T15:49:06.900Z,22.90
2022-09-02T15:51:38.611Z,22.70
2022-09-02T15:54:11.372Z,22.60
2022-09-02T15:59:21.120Z,22.40
2022-09-02T16:01:55.417Z,22.30
2022-09-02T16:06:57.533Z,21.40
2022-09-02T16:09:27.899Z,22.00
2022-09-02T16:11:58.690Z,22.10
2022-09-02T16:14:29.190Z,21.80
2022-09-02T16:22:02.378Z,21.80
2022-09-02T16:24:32.390Z,21.40
2022-09-02T16:29:33.244Z,21.30
2022-09-02T16:42:28.936Z,20.70
2022-09-02T16:47:31.885Z,20.70
2022-09-02T16:50:01.990Z,20.50
2022-09-02T16:52:34.964Z,20.60
2022-09-02T17:02:39.855Z,20.30
2022-09-02T17:22:47.994Z,19.60
2022-09-02T17:25:18.536Z,19.50
2022-09-02T17:27:48.682Z,19.30
2022-09-02T17:30:18.688Z,19.30
2022-09-02T17:35:26.615Z,19.00
2022-09-02T17:37:56.875Z,19.00
2022-09-02T17:45:39.886Z,18.80
2022-09-02T17:48:36.926Z,18.50
2022-09-02T17:56:20.024Z,18.20
2022-09-02T17:58:58.754Z,18.10
2022-09-02T18:01:30.384Z,17.90
2022-09-02T18:06:45.361Z,17.40
2022-09-02T18:09:15.364Z,16.80
2022-09-02T18:14:21.894Z,17.40
2022-09-02T18:22:24.798Z,17.10
2022-09-02T18:30:11.758Z,17.00
2022-09-02T18:33:08.627Z,16.90
2022-09-02T18:38:28.287Z,16.90
2022-09-02T18:43:50.194Z,16.90
2022-09-02T18:54:12.487Z,16.70
2022-09-02T19:01:56.477Z,16.30
2022-09-02T19:12:15.646Z,16.40
2022-09-02T19:14:46.680Z,16.20
2022-09-02T19:25:01.506Z,16.00
2022-09-02T19:35:16.663Z,15.90
2022-09-02T19:37:51.697Z,15.90
2022-09-02T19:40:24.447Z,15.80
2022-09-02T19:42:55.292Z,15.70
2022-09-02T19:50:40.919Z,15.30
2022-09-02T19:53:25.776Z,15.60
2022-09-02T19:55:55.770Z,15.40
2022-09-02T19:58:25.847Z,15.40
2022-09-02T20:00:57.106Z,15.80
2022-09-02T20:03:28.201Z,15.30
2022-09-02T20:08:31.617Z,15.20
2022-09-02T20:13:38.613Z,15.10
2022-09-02T20:23:55.934Z,14.90
2022-09-02T20:36:50.674Z,14.80
2022-09-02T20:42:25.454Z,14.60
2022-09-02T20:47:46.264Z,14.50
2022-09-02T20:50:46.465Z,14.50
2022-09-02T20:53:34.226Z,14.50
2022-09-02T21:01:12.480Z,14.30
2022-09-02T21:03:52.989Z,14.30
2022-09-02T21:11:48.132Z,14.20
2022-09-02T21:14:23.528Z,14.20
2022-09-02T21:16:59.896Z,14.10
2022-09-02T21:27:23.044Z,13.90
2022-09-02T21:30:02.280Z,13.90
2022-09-02T21:35:13.614Z,13.90
2022-09-02T21:40:19.177Z,13.90
2022-09-02T21:43:08.063Z,13.90
2022-09-02T21:45:45.907Z,13.90
2022-09-02T21:51:01.113Z,14.00
2022-09-02T21:59:14.318Z,13.90
2022-09-02T22:01:49.275Z,13.80
2022-09-02T22:09:37.408Z,13.70
2022-09-02T22:12:14.802Z,13.80
2022-09-02T22:14:54.199Z,13.80
2022-09-02T22:25:05.247Z,13.70
2022-09-02T22:30:13.606Z,13.70
2022-09-02T22:32:45.978Z,13.50
2022-09-02T22:38:01.690Z,13.60
2022-09-02T22:40:35.287Z,13.60
2022-09-02T22:43:09.992Z,13.50
2022-09-02T22:46:01.212Z,13.50
2022-09-02T22:48:51.394Z,13.50
2022-09-02T23:17:39.636Z,13.30
2022-09-02T23:28:15.175Z,13.20
2022-09-02T23:41:18.554Z,13.10
